sensor_id;sensor_type;location;lat;lon;timestamp;P1;durP1;ratioP1;P2;durP2;ratioP2
57828;SDS011;43657;52.698;6.314;2023-04-12T00:00:38;8.55;;;3.40;;
57828;SDS011;43657;52.698;6.314;2023-04-12T00:03:07;9.18;;;3.60;;
57828;SDS011;43657;52.698;6.314;2023-04-12T00:05:36;11.05;;;4.00;;
57828;SDS011;43657;52.698;6.314;2023-04-12T00:08:05;8.00;;;3.53;;
57828;SDS011;43657;52.698;6.314;2023-04-12T00:10:30;10.05;;;4.07;;
57828;SDS011;43657;52.698;6.314;2023-04-12T00:13:04;8.55;;;3.70;;
57828;SDS011;43657;52.698;6.314;2023-04-12T00:15:34;10.77;;;4.22;;
57828;SDS011;43657;52.698;6.314;2023-04-12T00:18:00;9.23;;;3.58;;
57828;SDS011;43657;52.698;6.314;2023-04-12T00:20:25;14.68;;;4.50;;
57828;SDS011;43657;52.698;6.314;2023-04-12T00:22:51;8.70;;;3.80;;
57828;SDS011;43657;52.698;6.314;2023-04-12T00:25:17;13.45;;;4.32;;
57828;SDS011;43657;52.698;6.314;2023-04-12T00:27:46;13.10;;;4.03;;
57828;SDS011;43657;52.698;6.314;2023-04-12T00:30:18;10.23;;;3.90;;
57828;SDS011;43657;52.698;6.314;2023-04-12T00:32:45;9.95;;;4.15;;
57828;SDS011;43657;52.698;6.314;2023-04-12T00:35:14;9.20;;;3.78;;
57828;SDS011;43657;52.698;6.314;2023-04-12T00:37:40;11.52;;;3.95;;
57828;SDS011;43657;52.698;6.314;2023-04-12T00:40:11;11.68;;;4.22;;
57828;SDS011;43657;52.698;6.314;2023-04-12T00:42:45;10.60;;;4.00;;
57828;SDS011;43657;52.698;6.314;2023-04-12T00:45:23;10.97;;;4.10;;
57828;SDS011;43657;52.698;6.314;2023-04-12T00:47:51;10.23;;;3.75;;
57828;SDS011;43657;52.698;6.314;2023-04-12T00:50:31;11.40;;;3.92;;
57828;SDS011;43657;52.698;6.314;2023-04-12T00:52:58;13.10;;;4.78;;
57828;SDS011;43657;52.698;6.314;2023-04-12T00:55:30;9.93;;;3.90;;
57828;SDS011;43657;52.698;6.314;2023-04-12T00:58:01;9.57;;;3.97;;
57828;SDS011;43657;52.698;6.314;2023-04-12T01:00:34;10.20;;;3.80;;
57828;SDS011;43657;52.698;6.314;2023-04-12T01:02:59;11.43;;;4.38;;
57828;SDS011;43657;52.698;6.314;2023-04-12T01:05:36;10.00;;;3.97;;
57828;SDS011;43657;52.698;6.314;2023-04-12T01:08:18;9.77;;;3.90;;
57828;SDS011;43657;52.698;6.314;2023-04-12T01:14:02;10.55;;;4.38;;
57828;SDS011;43657;52.698;6.314;2023-04-12T01:16:43;9.18;;;3.90;;
57828;SDS011;43657;52.698;6.314;2023-04-12T01:25:50;11.20;;;3.70;;
57828;SDS011;43657;52.698;6.314;2023-04-12T01:28:46;11.52;;;3.97;;
57828;SDS011;43657;52.698;6.314;2023-04-12T01:31:19;11.23;;;3.45;;
57828;SDS011;43657;52.698;6.314;2023-04-12T01:34:04;9.10;;;3.40;;
57828;SDS011;43657;52.698;6.314;2023-04-12T01:36:39;8.32;;;3.17;;
57828;SDS011;43657;52.698;6.314;2023-04-12T01:39:21;8.52;;;3.22;;
57828;SDS011;43657;52.698;6.314;2023-04-12T01:41:50;10.18;;;4.15;;
57828;SDS011;43657;52.698;6.314;2023-04-12T01:44:21;10.25;;;3.67;;
57828;SDS011;43657;52.698;6.314;2023-04-12T01:46:54;8.48;;;3.85;;
57828;SDS011;43657;52.698;6.314;2023-04-12T01:49:28;9.85;;;3.60;;
57828;SDS011;43657;52.698;6.314;2023-04-12T01:52:06;8.95;;;3.63;;
57828;SDS011;43657;52.698;6.314;2023-04-12T01:54:38;9.63;;;3.67;;
57828;SDS011;43657;52.698;6.314;2023-04-12T01:57:15;7.57;;;3.63;;
57828;SDS011;43657;52.698;6.314;2023-04-12T01:59:53;10.40;;;3.78;;
57828;SDS011;43657;52.698;6.314;2023-04-12T02:02:22;11.93;;;4.32;;
57828;SDS011;43657;52.698;6.314;2023-04-12T02:04:49;10.27;;;3.97;;
57828;SDS011;43657;52.698;6.314;2023-04-12T02:07:29;8.88;;;3.90;;
57828;SDS011;43657;52.698;6.314;2023-04-12T02:10:11;12.23;;;4.30;;
57828;SDS011;43657;52.698;6.314;2023-04-12T02:12:41;11.35;;;4.03;;
57828;SDS011;43657;52.698;6.314;2023-04-12T02:18:10;11.00;;;4.03;;
57828;SDS011;43657;52.698;6.314;2023-04-12T02:20:43;8.80;;;4.05;;
57828;SDS011;43657;52.698;6.314;2023-04-12T02:23:12;9.13;;;4.07;;
57828;SDS011;43657;52.698;6.314;2023-04-12T02:25:47;10.93;;;4.15;;
57828;SDS011;43657;52.698;6.314;2023-04-12T02:28:15;10.15;;;4.57;;
57828;SDS011;43657;52.698;6.314;2023-04-12T02:30:53;9.15;;;4.10;;
57828;SDS011;43657;52.698;6.314;2023-04-12T02:33:23;7.43;;;3.88;;
57828;SDS011;43657;52.698;6.314;2023-04-12T02:35:58;9.18;;;3.85;;
57828;SDS011;43657;52.698;6.314;2023-04-12T02:38:35;10.73;;;4.22;;
57828;SDS011;43657;52.698;6.314;2023-04-12T02:41:15;10.75;;;4.15;;
57828;SDS011;43657;52.698;6.314;2023-04-12T02:43:44;10.38;;;4.25;;
57828;SDS011;43657;52.698;6.314;2023-04-12T02:46:14;9.80;;;4.13;;
57828;SDS011;43657;52.698;6.314;2023-04-12T02:48:53;8.20;;;3.80;;
57828;SDS011;43657;52.698;6.314;2023-04-12T02:51:25;10.07;;;3.70;;
57828;SDS011;43657;52.698;6.314;2023-04-12T02:53:54;9.80;;;3.72;;
57828;SDS011;43657;52.698;6.314;2023-04-12T02:56:26;8.95;;;3.25;;
57828;SDS011;43657;52.698;6.314;2023-04-12T02:58:59;8.50;;;3.10;;
57828;SDS011;43657;52.698;6.314;2023-04-12T03:01:38;8.77;;;3.33;;
57828;SDS011;43657;52.698;6.314;2023-04-12T03:04:13;7.07;;;2.78;;
57828;SDS011;43657;52.698;6.314;2023-04-12T03:06:47;6.95;;;2.97;;
57828;SDS011;43657;52.698;6.314;2023-04-12T03:09:18;7.10;;;2.97;;
57828;SDS011;43657;52.698;6.314;2023-04-12T03:11:47;7.97;;;3.03;;
57828;SDS011;43657;52.698;6.314;2023-04-12T03:14:13;9.13;;;2.97;;
57828;SDS011;43657;52.698;6.314;2023-04-12T03:16:49;9.02;;;3.05;;
57828;SDS011;43657;52.698;6.314;2023-04-12T03:19:18;9.55;;;3.25;;
57828;SDS011;43657;52.698;6.314;2023-04-12T03:21:46;7.82;;;2.72;;
57828;SDS011;43657;52.698;6.314;2023-04-12T03:24:12;7.32;;;3.10;;
57828;SDS011;43657;52.698;6.314;2023-04-12T03:26:38;9.35;;;3.38;;
57828;SDS011;43657;52.698;6.314;2023-04-12T03:29:04;7.43;;;3.78;;
57828;SDS011;43657;52.698;6.314;2023-04-12T03:31:30;7.18;;;3.53;;
57828;SDS011;43657;52.698;6.314;2023-04-12T03:33:56;8.98;;;3.17;;
57828;SDS011;43657;52.698;6.314;2023-04-12T03:36:22;6.63;;;2.97;;
57828;SDS011;43657;52.698;6.314;2023-04-12T03:38:48;8.32;;;3.58;;
57828;SDS011;43657;52.698;6.314;2023-04-12T03:41:16;8.68;;;3.13;;
57828;SDS011;43657;52.698;6.314;2023-04-12T03:43:42;8.15;;;3.35;;
57828;SDS011;43657;52.698;6.314;2023-04-12T03:46:08;8.73;;;2.90;;
57828;SDS011;43657;52.698;6.314;2023-04-12T03:48:34;7.45;;;3.28;;
57828;SDS011;43657;52.698;6.314;2023-04-12T03:51:00;7.47;;;3.22;;
57828;SDS011;43657;52.698;6.314;2023-04-12T03:53:32;7.55;;;3.35;;
57828;SDS011;43657;52.698;6.314;2023-04-12T03:55:59;10.18;;;3.53;;
57828;SDS011;43657;52.698;6.314;2023-04-12T03:58:27;7.65;;;3.50;;
57828;SDS011;43657;52.698;6.314;2023-04-12T04:00:53;8.45;;;4.15;;
57828;SDS011;43657;52.698;6.314;2023-04-12T04:03:19;10.27;;;4.68;;
57828;SDS011;43657;52.698;6.314;2023-04-12T04:05:50;7.65;;;4.40;;
57828;SDS011;43657;52.698;6.314;2023-04-12T04:08:17;9.48;;;5.47;;
57828;SDS011;43657;52.698;6.314;2023-04-12T04:10:44;11.55;;;5.82;;
57828;SDS011;43657;52.698;6.314;2023-04-12T04:13:11;11.23;;;6.13;;
57828;SDS011;43657;52.698;6.314;2023-04-12T04:15:38;10.35;;;6.30;;
57828;SDS011;43657;52.698;6.314;2023-04-12T04:18:07;10.23;;;7.15;;
57828;SDS011;43657;52.698;6.314;2023-04-12T04:20:36;11.43;;;7.80;;
57828;SDS011;43657;52.698;6.314;2023-04-12T04:23:02;11.02;;;7.45;;
57828;SDS011;43657;52.698;6.314;2023-04-12T04:25:28;10.40;;;7.85;;
57828;SDS011;43657;52.698;6.314;2023-04-12T04:27:55;13.75;;;9.32;;
57828;SDS011;43657;52.698;6.314;2023-04-12T04:30:22;12.68;;;9.70;;
57828;SDS011;43657;52.698;6.314;2023-04-12T04:32:48;16.85;;;11.73;;
57828;SDS011;43657;52.698;6.314;2023-04-12T04:35:17;14.35;;;11.65;;
57828;SDS011;43657;52.698;6.314;2023-04-12T04:37:44;15.82;;;11.27;;
57828;SDS011;43657;52.698;6.314;2023-04-12T04:40:18;16.15;;;13.07;;
57828;SDS011;43657;52.698;6.314;2023-04-12T04:42:49;16.70;;;13.00;;
57828;SDS011;43657;52.698;6.314;2023-04-12T04:45:24;17.35;;;13.50;;
57828;SDS011;43657;52.698;6.314;2023-04-12T04:47:55;15.70;;;12.93;;
57828;SDS011;43657;52.698;6.314;2023-04-12T04:50:24;15.52;;;12.60;;
57828;SDS011;43657;52.698;6.314;2023-04-12T04:52:55;17.27;;;12.20;;
57828;SDS011;43657;52.698;6.314;2023-04-12T04:55:21;12.75;;;11.38;;
57828;SDS011;43657;52.698;6.314;2023-04-12T04:57:51;15.98;;;12.73;;
57828;SDS011;43657;52.698;6.314;2023-04-12T05:00:17;16.15;;;12.10;;
57828;SDS011;43657;52.698;6.314;2023-04-12T05:02:43;13.88;;;11.60;;
57828;SDS011;43657;52.698;6.314;2023-04-12T05:05:13;13.48;;;11.13;;
57828;SDS011;43657;52.698;6.314;2023-04-12T05:07:42;13.70;;;9.98;;
57828;SDS011;43657;52.698;6.314;2023-04-12T05:10:08;13.23;;;9.50;;
57828;SDS011;43657;52.698;6.314;2023-04-12T05:12:38;14.40;;;11.65;;
57828;SDS011;43657;52.698;6.314;2023-04-12T05:15:07;12.82;;;9.93;;
57828;SDS011;43657;52.698;6.314;2023-04-12T05:17:36;14.48;;;8.88;;
57828;SDS011;43657;52.698;6.314;2023-04-12T05:20:05;12.15;;;9.07;;
57828;SDS011;43657;52.698;6.314;2023-04-12T05:22:34;11.98;;;8.88;;
57828;SDS011;43657;52.698;6.314;2023-04-12T05:25:00;12.70;;;10.18;;
57828;SDS011;43657;52.698;6.314;2023-04-12T05:27:30;12.75;;;8.73;;
57828;SDS011;43657;52.698;6.314;2023-04-12T05:29:56;11.95;;;8.43;;
57828;SDS011;43657;52.698;6.314;2023-04-12T05:32:23;12.50;;;8.25;;
57828;SDS011;43657;52.698;6.314;2023-04-12T05:34:51;11.95;;;8.60;;
57828;SDS011;43657;52.698;6.314;2023-04-12T05:37:19;11.98;;;7.90;;
57828;SDS011;43657;52.698;6.314;2023-04-12T05:39:53;10.88;;;8.48;;
57828;SDS011;43657;52.698;6.314;2023-04-12T05:42:25;10.70;;;7.07;;
57828;SDS011;43657;52.698;6.314;2023-04-12T05:44:53;11.27;;;8.30;;
57828;SDS011;43657;52.698;6.314;2023-04-12T05:47:23;11.65;;;7.47;;
57828;SDS011;43657;52.698;6.314;2023-04-12T05:49:54;10.48;;;7.53;;
57828;SDS011;43657;52.698;6.314;2023-04-12T05:52:23;11.55;;;8.63;;
57828;SDS011;43657;52.698;6.314;2023-04-12T05:54:52;11.57;;;8.00;;
57828;SDS011;43657;52.698;6.314;2023-04-12T05:57:17;11.43;;;8.35;;
57828;SDS011;43657;52.698;6.314;2023-04-12T05:59:46;12.70;;;9.10;;
57828;SDS011;43657;52.698;6.314;2023-04-12T06:02:12;11.02;;;8.77;;
57828;SDS011;43657;52.698;6.314;2023-04-12T06:04:41;11.88;;;8.93;;
57828;SDS011;43657;52.698;6.314;2023-04-12T06:07:21;15.70;;;9.85;;
57828;SDS011;43657;52.698;6.314;2023-04-12T06:12:27;11.38;;;10.13;;
57828;SDS011;43657;52.698;6.314;2023-04-12T06:15:23;11.63;;;10.38;;
57828;SDS011;43657;52.698;6.314;2023-04-12T06:17:52;12.50;;;11.07;;
57828;SDS011;43657;52.698;6.314;2023-04-12T06:20:18;12.95;;;9.45;;
57828;SDS011;43657;52.698;6.314;2023-04-12T06:22:44;13.63;;;11.68;;
57828;SDS011;43657;52.698;6.314;2023-04-12T06:25:10;14.20;;;10.63;;
57828;SDS011;43657;52.698;6.314;2023-04-12T06:27:43;11.40;;;10.20;;
57828;SDS011;43657;52.698;6.314;2023-04-12T06:30:15;13.57;;;11.45;;
57828;SDS011;43657;52.698;6.314;2023-04-12T06:32:44;11.57;;;10.45;;
57828;SDS011;43657;52.698;6.314;2023-04-12T06:35:15;14.30;;;12.35;;
57828;SDS011;43657;52.698;6.314;2023-04-12T06:37:52;13.68;;;11.98;;
57828;SDS011;43657;52.698;6.314;2023-04-12T06:40:17;15.43;;;13.93;;
57828;SDS011;43657;52.698;6.314;2023-04-12T06:42:43;14.15;;;12.60;;
57828;SDS011;43657;52.698;6.314;2023-04-12T06:45:11;13.05;;;11.75;;
57828;SDS011;43657;52.698;6.314;2023-04-12T06:47:37;16.45;;;14.77;;
57828;SDS011;43657;52.698;6.314;2023-04-12T06:50:03;15.85;;;14.35;;
57828;SDS011;43657;52.698;6.314;2023-04-12T06:52:33;15.15;;;13.63;;
57828;SDS011;43657;52.698;6.314;2023-04-12T06:54:59;17.75;;;16.05;;
57828;SDS011;43657;52.698;6.314;2023-04-12T06:57:25;16.52;;;14.82;;
57828;SDS011;43657;52.698;6.314;2023-04-12T06:59:50;17.80;;;16.02;;
57828;SDS011;43657;52.698;6.314;2023-04-12T07:02:16;16.75;;;15.35;;
57828;SDS011;43657;52.698;6.314;2023-04-12T07:04:45;17.60;;;15.93;;
57828;SDS011;43657;52.698;6.314;2023-04-12T07:07:11;18.52;;;16.83;;
57828;SDS011;43657;52.698;6.314;2023-04-12T07:09:37;19.10;;;17.50;;
57828;SDS011;43657;52.698;6.314;2023-04-12T07:12:03;20.70;;;18.67;;
57828;SDS011;43657;52.698;6.314;2023-04-12T07:14:28;20.02;;;18.23;;
57828;SDS011;43657;52.698;6.314;2023-04-12T07:16:54;22.02;;;20.02;;
57828;SDS011;43657;52.698;6.314;2023-04-12T07:19:20;21.13;;;19.15;;
57828;SDS011;43657;52.698;6.314;2023-04-12T07:21:46;21.40;;;19.60;;
57828;SDS011;43657;52.698;6.314;2023-04-12T07:24:11;23.77;;;21.58;;
57828;SDS011;43657;52.698;6.314;2023-04-12T07:26:37;24.08;;;21.80;;
57828;SDS011;43657;52.698;6.314;2023-04-12T07:29:03;23.38;;;21.38;;
57828;SDS011;43657;52.698;6.314;2023-04-12T07:31:31;24.27;;;22.08;;
57828;SDS011;43657;52.698;6.314;2023-04-12T07:33:56;26.15;;;23.80;;
57828;SDS011;43657;52.698;6.314;2023-04-12T07:36:31;25.23;;;23.02;;
57828;SDS011;43657;52.698;6.314;2023-04-12T07:39:00;21.63;;;19.70;;
57828;SDS011;43657;52.698;6.314;2023-04-12T07:41:29;25.20;;;23.05;;
57828;SDS011;43657;52.698;6.314;2023-04-12T07:43:57;23.55;;;21.40;;
57828;SDS011;43657;52.698;6.314;2023-04-12T07:46:39;29.75;;;27.00;;
57828;SDS011;43657;52.698;6.314;2023-04-12T07:49:16;33.08;;;30.05;;
57828;SDS011;43657;52.698;6.314;2023-04-12T07:54:35;36.97;;;33.67;;
57828;SDS011;43657;52.698;6.314;2023-04-12T07:59:41;36.60;;;33.55;;
57828;SDS011;43657;52.698;6.314;2023-04-12T08:02:06;39.47;;;35.92;;
57828;SDS011;43657;52.698;6.314;2023-04-12T08:04:32;35.38;;;32.50;;
57828;SDS011;43657;52.698;6.314;2023-04-12T08:06:58;35.60;;;32.60;;
57828;SDS011;43657;52.698;6.314;2023-04-12T08:09:23;37.15;;;33.95;;
57828;SDS011;43657;52.698;6.314;2023-04-12T08:11:49;34.58;;;31.92;;
57828;SDS011;43657;52.698;6.314;2023-04-12T08:14:19;32.38;;;29.42;;
57828;SDS011;43657;52.698;6.314;2023-04-12T08:16:44;35.65;;;32.65;;
57828;SDS011;43657;52.698;6.314;2023-04-12T08:19:10;31.35;;;28.88;;
57828;SDS011;43657;52.698;6.314;2023-04-12T08:21:36;32.58;;;29.85;;
57828;SDS011;43657;52.698;6.314;2023-04-12T08:24:04;35.97;;;32.63;;
57828;SDS011;43657;52.698;6.314;2023-04-12T08:26:30;35.17;;;32.08;;
57828;SDS011;43657;52.698;6.314;2023-04-12T08:28:58;29.27;;;26.65;;
57828;SDS011;43657;52.698;6.314;2023-04-12T08:31:25;29.58;;;27.13;;
57828;SDS011;43657;52.698;6.314;2023-04-12T08:33:53;31.88;;;28.98;;
57828;SDS011;43657;52.698;6.314;2023-04-12T08:36:26;29.42;;;26.92;;
57828;SDS011;43657;52.698;6.314;2023-04-12T08:39:01;29.35;;;26.85;;
57828;SDS011;43657;52.698;6.314;2023-04-12T08:41:27;27.65;;;25.25;;
57828;SDS011;43657;52.698;6.314;2023-04-12T08:44:03;27.88;;;25.65;;
57828;SDS011;43657;52.698;6.314;2023-04-12T08:46:40;29.25;;;26.85;;
57828;SDS011;43657;52.698;6.314;2023-04-12T08:49:08;28.88;;;26.38;;
57828;SDS011;43657;52.698;6.314;2023-04-12T08:52:07;24.58;;;22.38;;
57828;SDS011;43657;52.698;6.314;2023-04-12T08:54:40;31.40;;;28.55;;
57828;SDS011;43657;52.698;6.314;2023-04-12T08:59:36;22.63;;;20.48;;
57828;SDS011;43657;52.698;6.314;2023-04-12T09:02:03;25.63;;;23.13;;
57828;SDS011;43657;52.698;6.314;2023-04-12T09:04:28;22.48;;;20.48;;
57828;SDS011;43657;52.698;6.314;2023-04-12T09:06:54;25.85;;;23.40;;
57828;SDS011;43657;52.698;6.314;2023-04-12T09:09:39;27.08;;;24.45;;
57828;SDS011;43657;52.698;6.314;2023-04-12T09:12:06;23.45;;;21.15;;
57828;SDS011;43657;52.698;6.314;2023-04-12T09:14:33;19.08;;;17.17;;
57828;SDS011;43657;52.698;6.314;2023-04-12T09:16:59;18.35;;;16.73;;
57828;SDS011;43657;52.698;6.314;2023-04-12T09:19:29;16.10;;;14.40;;
57828;SDS011;43657;52.698;6.314;2023-04-12T09:21:56;18.83;;;17.13;;
57828;SDS011;43657;52.698;6.314;2023-04-12T09:24:21;15.02;;;13.50;;
57828;SDS011;43657;52.698;6.314;2023-04-12T09:27:03;14.02;;;12.63;;
57828;SDS011;43657;52.698;6.314;2023-04-12T09:29:30;12.43;;;10.90;;
57828;SDS011;43657;52.698;6.314;2023-04-12T09:34:30;13.70;;;11.48;;
57828;SDS011;43657;52.698;6.314;2023-04-12T09:36:56;15.45;;;12.90;;
57828;SDS011;43657;52.698;6.314;2023-04-12T09:39:31;12.65;;;9.93;;
57828;SDS011;43657;52.698;6.314;2023-04-12T09:42:05;12.32;;;11.07;;
57828;SDS011;43657;52.698;6.314;2023-04-12T09:44:34;9.77;;;8.20;;
57828;SDS011;43657;52.698;6.314;2023-04-12T09:47:00;11.88;;;9.77;;
57828;SDS011;43657;52.698;6.314;2023-04-12T09:49:38;10.43;;;8.30;;
57828;SDS011;43657;52.698;6.314;2023-04-12T09:52:05;10.32;;;7.97;;
57828;SDS011;43657;52.698;6.314;2023-04-12T09:54:37;13.90;;;8.43;;
57828;SDS011;43657;52.698;6.314;2023-04-12T09:59:34;9.52;;;6.20;;
57828;SDS011;43657;52.698;6.314;2023-04-12T10:02:03;14.18;;;6.25;;
57828;SDS011;43657;52.698;6.314;2023-04-12T10:04:41;9.02;;;5.10;;
57828;SDS011;43657;52.698;6.314;2023-04-12T10:07:08;12.82;;;5.28;;
57828;SDS011;43657;52.698;6.314;2023-04-12T10:09:36;10.52;;;4.20;;
57828;SDS011;43657;52.698;6.314;2023-04-12T10:12:03;13.50;;;4.47;;
57828;SDS011;43657;52.698;6.314;2023-04-12T10:14:29;10.88;;;4.82;;
57828;SDS011;43657;52.698;6.314;2023-04-12T10:16:55;20.60;;;5.13;;
57828;SDS011;43657;52.698;6.314;2023-04-12T10:19:23;10.50;;;4.60;;
57828;SDS011;43657;52.698;6.314;2023-04-12T10:21:50;11.90;;;5.18;;
57828;SDS011;43657;52.698;6.314;2023-04-12T10:24:16;13.63;;;4.53;;
57828;SDS011;43657;52.698;6.314;2023-04-12T10:26:42;13.85;;;4.25;;
57828;SDS011;43657;52.698;6.314;2023-04-12T10:29:21;15.27;;;4.10;;
57828;SDS011;43657;52.698;6.314;2023-04-12T10:31:51;12.43;;;3.95;;
57828;SDS011;43657;52.698;6.314;2023-04-12T10:34:27;11.35;;;3.90;;
57828;SDS011;43657;52.698;6.314;2023-04-12T10:36:54;16.13;;;3.90;;
57828;SDS011;43657;52.698;6.314;2023-04-12T10:39:40;13.30;;;3.25;;
57828;SDS011;43657;52.698;6.314;2023-04-12T10:44:42;12.48;;;3.38;;
57828;SDS011;43657;52.698;6.314;2023-04-12T10:47:08;13.50;;;3.97;;
57828;SDS011;43657;52.698;6.314;2023-04-12T10:49:35;12.07;;;4.03;;
57828;SDS011;43657;52.698;6.314;2023-04-12T10:54:33;12.80;;;4.35;;
57828;SDS011;43657;52.698;6.314;2023-04-12T10:56:59;12.63;;;3.88;;
57828;SDS011;43657;52.698;6.314;2023-04-12T10:59:49;12.27;;;3.38;;
57828;SDS011;43657;52.698;6.314;2023-04-12T11:02:15;11.80;;;3.45;;
57828;SDS011;43657;52.698;6.314;2023-04-12T11:05:23;11.65;;;3.42;;
57828;SDS011;43657;52.698;6.314;2023-04-12T11:07:42;10.82;;;3.22;;
57828;SDS011;43657;52.698;6.314;2023-04-12T11:10:12;11.75;;;3.72;;
57828;SDS011;43657;52.698;6.314;2023-04-12T11:12:39;10.52;;;4.07;;
57828;SDS011;43657;52.698;6.314;2023-04-12T11:15:06;13.40;;;3.60;;
57828;SDS011;43657;52.698;6.314;2023-04-12T11:17:35;14.68;;;3.65;;
57828;SDS011;43657;52.698;6.314;2023-04-12T11:20:01;11.57;;;3.15;;
57828;SDS011;43657;52.698;6.314;2023-04-12T11:22:29;13.23;;;3.55;;
57828;SDS011;43657;52.698;6.314;2023-04-12T11:25:00;10.32;;;2.90;;
57828;SDS011;43657;52.698;6.314;2023-04-12T11:27:27;10.52;;;3.22;;
57828;SDS011;43657;52.698;6.314;2023-04-12T11:29:54;12.65;;;3.92;;
57828;SDS011;43657;52.698;6.314;2023-04-12T11:32:25;15.40;;;3.60;;
57828;SDS011;43657;52.698;6.314;2023-04-12T11:34:53;11.98;;;3.50;;
57828;SDS011;43657;52.698;6.314;2023-04-12T11:37:20;16.15;;;4.22;;
57828;SDS011;43657;52.698;6.314;2023-04-12T11:39:48;12.63;;;3.78;;
57828;SDS011;43657;52.698;6.314;2023-04-12T11:42:19;9.93;;;2.85;;
57828;SDS011;43657;52.698;6.314;2023-04-12T11:44:46;12.75;;;3.63;;
57828;SDS011;43657;52.698;6.314;2023-04-12T11:47:30;13.75;;;3.72;;
57828;SDS011;43657;52.698;6.314;2023-04-12T11:49:56;13.52;;;3.63;;
57828;SDS011;43657;52.698;6.314;2023-04-12T11:52:27;12.40;;;3.65;;
57828;SDS011;43657;52.698;6.314;2023-04-12T11:54:54;10.40;;;3.50;;
57828;SDS011;43657;52.698;6.314;2023-04-12T11:57:22;13.00;;;3.47;;
57828;SDS011;43657;52.698;6.314;2023-04-12T11:59:48;13.00;;;3.50;;
57828;SDS011;43657;52.698;6.314;2023-04-12T12:02:15;10.70;;;3.17;;
57828;SDS011;43657;52.698;6.314;2023-04-12T12:04:45;13.82;;;3.70;;
57828;SDS011;43657;52.698;6.314;2023-04-12T12:07:12;9.75;;;3.00;;
57828;SDS011;43657;52.698;6.314;2023-04-12T12:09:41;13.25;;;3.60;;
57828;SDS011;43657;52.698;6.314;2023-04-12T12:12:11;15.98;;;4.20;;
57828;SDS011;43657;52.698;6.314;2023-04-12T12:14:37;14.02;;;3.53;;
57828;SDS011;43657;52.698;6.314;2023-04-12T12:17:10;20.40;;;3.53;;
57828;SDS011;43657;52.698;6.314;2023-04-12T12:19:37;16.17;;;3.60;;
57828;SDS011;43657;52.698;6.314;2023-04-12T12:22:14;13.80;;;3.78;;
57828;SDS011;43657;52.698;6.314;2023-04-12T12:24:48;15.50;;;3.92;;
57828;SDS011;43657;52.698;6.314;2023-04-12T12:27:19;16.52;;;4.25;;
57828;SDS011;43657;52.698;6.314;2023-04-12T12:29:49;14.85;;;3.88;;
57828;SDS011;43657;52.698;6.314;2023-04-12T12:32:17;14.18;;;3.60;;
57828;SDS011;43657;52.698;6.314;2023-04-12T12:34:54;19.10;;;4.82;;
57828;SDS011;43657;52.698;6.314;2023-04-12T12:37:24;14.48;;;4.00;;
57828;SDS011;43657;52.698;6.314;2023-04-12T12:40:07;15.70;;;3.53;;
57828;SDS011;43657;52.698;6.314;2023-04-12T12:42:44;15.18;;;3.67;;
57828;SDS011;43657;52.698;6.314;2023-04-12T12:45:11;16.65;;;3.97;;
57828;SDS011;43657;52.698;6.314;2023-04-12T12:47:50;13.35;;;3.40;;
57828;SDS011;43657;52.698;6.314;2023-04-12T12:50:18;14.15;;;3.90;;
57828;SDS011;43657;52.698;6.314;2023-04-12T12:52:47;13.55;;;3.28;;
57828;SDS011;43657;52.698;6.314;2023-04-12T12:55:15;12.07;;;3.08;;
57828;SDS011;43657;52.698;6.314;2023-04-12T12:57:42;14.25;;;3.42;;
57828;SDS011;43657;52.698;6.314;2023-04-12T13:00:08;12.57;;;3.05;;
57828;SDS011;43657;52.698;6.314;2023-04-12T13:02:35;14.90;;;3.65;;
57828;SDS011;43657;52.698;6.314;2023-04-12T13:05:02;14.25;;;3.40;;
57828;SDS011;43657;52.698;6.314;2023-04-12T13:07:28;10.20;;;3.40;;
57828;SDS011;43657;52.698;6.314;2023-04-12T13:09:54;13.40;;;3.47;;
57828;SDS011;43657;52.698;6.314;2023-04-12T13:12:20;11.93;;;3.15;;
57828;SDS011;43657;52.698;6.314;2023-04-12T13:14:46;15.35;;;3.55;;
57828;SDS011;43657;52.698;6.314;2023-04-12T13:17:12;13.57;;;3.53;;
57828;SDS011;43657;52.698;6.314;2023-04-12T13:19:38;13.55;;;3.58;;
57828;SDS011;43657;52.698;6.314;2023-04-12T13:22:04;14.73;;;3.53;;
57828;SDS011;43657;52.698;6.314;2023-04-12T13:24:31;11.50;;;3.35;;
57828;SDS011;43657;52.698;6.314;2023-04-12T13:26:56;12.13;;;3.17;;
57828;SDS011;43657;52.698;6.314;2023-04-12T13:29:22;11.35;;;3.28;;
57828;SDS011;43657;52.698;6.314;2023-04-12T13:31:47;14.38;;;3.58;;
57828;SDS011;43657;52.698;6.314;2023-04-12T13:34:13;13.45;;;3.30;;
57828;SDS011;43657;52.698;6.314;2023-04-12T13:36:39;13.55;;;2.83;;
57828;SDS011;43657;52.698;6.314;2023-04-12T13:39:05;11.43;;;3.53;;
57828;SDS011;43657;52.698;6.314;2023-04-12T13:41:33;13.13;;;3.30;;
57828;SDS011;43657;52.698;6.314;2023-04-12T13:44:00;12.32;;;3.25;;
57828;SDS011;43657;52.698;6.314;2023-04-12T13:46:25;8.10;;;2.20;;
57828;SDS011;43657;52.698;6.314;2023-04-12T13:48:51;7.03;;;2.20;;
57828;SDS011;43657;52.698;6.314;2023-04-12T13:51:17;6.40;;;1.58;;
57828;SDS011;43657;52.698;6.314;2023-04-12T13:53:43;7.78;;;2.00;;
57828;SDS011;43657;52.698;6.314;2023-04-12T13:56:08;8.27;;;2.67;;
57828;SDS011;43657;52.698;6.314;2023-04-12T13:58:35;8.10;;;2.40;;
57828;SDS011;43657;52.698;6.314;2023-04-12T14:01:03;7.53;;;2.03;;
57828;SDS011;43657;52.698;6.314;2023-04-12T14:03:30;5.90;;;1.88;;
57828;SDS011;43657;52.698;6.314;2023-04-12T14:05:55;6.22;;;1.85;;
57828;SDS011;43657;52.698;6.314;2023-04-12T14:08:21;7.10;;;2.20;;
57828;SDS011;43657;52.698;6.314;2023-04-12T14:10:47;5.43;;;1.90;;
57828;SDS011;43657;52.698;6.314;2023-04-12T14:13:12;8.65;;;2.25;;
57828;SDS011;43657;52.698;6.314;2023-04-12T14:15:38;7.63;;;2.30;;
57828;SDS011;43657;52.698;6.314;2023-04-12T14:18:03;7.30;;;1.98;;
57828;SDS011;43657;52.698;6.314;2023-04-12T14:20:29;6.88;;;2.17;;
57828;SDS011;43657;52.698;6.314;2023-04-12T14:22:54;7.93;;;2.05;;
57828;SDS011;43657;52.698;6.314;2023-04-12T14:25:20;10.27;;;2.38;;
57828;SDS011;43657;52.698;6.314;2023-04-12T14:27:46;7.60;;;2.03;;
57828;SDS011;43657;52.698;6.314;2023-04-12T14:30:12;10.02;;;2.40;;
57828;SDS011;43657;52.698;6.314;2023-04-12T14:32:37;8.18;;;2.40;;
57828;SDS011;43657;52.698;6.314;2023-04-12T14:35:03;11.55;;;2.80;;
57828;SDS011;43657;52.698;6.314;2023-04-12T14:37:30;11.05;;;2.90;;
57828;SDS011;43657;52.698;6.314;2023-04-12T14:39:56;9.77;;;2.95;;
57828;SDS011;43657;52.698;6.314;2023-04-12T14:42:22;9.70;;;2.75;;
57828;SDS011;43657;52.698;6.314;2023-04-12T14:44:48;10.50;;;2.35;;
57828;SDS011;43657;52.698;6.314;2023-04-12T14:47:13;11.57;;;2.75;;
57828;SDS011;43657;52.698;6.314;2023-04-12T14:49:39;7.28;;;2.28;;
57828;SDS011;43657;52.698;6.314;2023-04-12T14:52:04;12.15;;;3.63;;
57828;SDS011;43657;52.698;6.314;2023-04-12T14:54:30;8.60;;;2.22;;
57828;SDS011;43657;52.698;6.314;2023-04-12T14:56:56;10.57;;;2.88;;
57828;SDS011;43657;52.698;6.314;2023-04-12T14:59:22;14.25;;;2.90;;
57828;SDS011;43657;52.698;6.314;2023-04-12T15:01:48;13.13;;;2.80;;
57828;SDS011;43657;52.698;6.314;2023-04-12T15:04:13;11.80;;;2.78;;
57828;SDS011;43657;52.698;6.314;2023-04-12T15:06:39;9.40;;;2.45;;
57828;SDS011;43657;52.698;6.314;2023-04-12T15:09:07;11.80;;;3.40;;
57828;SDS011;43657;52.698;6.314;2023-04-12T15:11:33;12.77;;;3.38;;
57828;SDS011;43657;52.698;6.314;2023-04-12T15:13:59;12.77;;;3.33;;
57828;SDS011;43657;52.698;6.314;2023-04-12T15:16:26;9.80;;;2.85;;
57828;SDS011;43657;52.698;6.314;2023-04-12T15:18:52;8.98;;;2.75;;